createdAt,value
2023-01-13T00:00:05.911Z,939.65
2023-01-13T00:00:15.925Z,939.69
2023-01-13T00:00:25.950Z,939.68
2023-01-13T00:00:36.073Z,939.59
2023-01-13T00:00:45.918Z,939.65
2023-01-13T00:00:55.873Z,939.64
2023-01-13T00:01:05.878Z,939.64
2023-01-13T00:01:15.881Z,939.63
2023-01-13T00:01:25.890Z,939.70
2023-01-13T00:01:35.880Z,939.63
2023-01-13T00:01:45.878Z,939.56
2023-01-13T00:01:55.886Z,939.56
2023-01-13T00:02:05.916Z,939.62
2023-01-13T00:02:15.892Z,939.62
2023-01-13T00:02:25.945Z,939.59
2023-01-13T00:02:35.922Z,939.58
2023-01-13T00:02:45.944Z,939.59
2023-01-13T00:02:55.891Z,939.58
2023-01-13T00:03:05.901Z,939.57
2023-01-13T00:03:15.888Z,939.66
2023-01-13T00:03:25.888Z,939.52
2023-01-13T00:03:35.915Z,939.59
2023-01-13T00:03:45.904Z,939.52
2023-01-13T00:03:55.892Z,939.53
2023-01-13T00:04:05.907Z,939.57
2023-01-13T00:04:15.919Z,939.59
2023-01-13T00:04:25.923Z,939.58
2023-01-13T00:04:36.012Z,939.57
2023-01-13T00:04:45.933Z,939.57
2023-01-13T00:04:55.988Z,939.58
2023-01-13T00:05:05.981Z,939.57
2023-01-13T00:05:15.898Z,939.60
2023-01-13T00:05:25.909Z,939.62
2023-01-13T00:05:35.901Z,939.54
2023-01-13T00:05:45.903Z,939.51
2023-01-13T00:05:55.902Z,939.53
2023-01-13T00:06:05.913Z,939.52
2023-01-13T00:06:15.903Z,939.55
2023-01-13T00:06:25.924Z,939.56
2023-01-13T00:06:35.907Z,939.55
2023-01-13T00:06:45.908Z,939.58
2023-01-13T00:06:55.905Z,939.58
2023-01-13T00:07:05.907Z,939.56
2023-01-13T00:07:15.908Z,939.54
2023-01-13T00:07:25.908Z,939.55
2023-01-13T00:07:35.909Z,939.56
2023-01-13T00:07:45.909Z,939.59
2023-01-13T00:07:55.920Z,939.57
2023-01-13T00:08:05.910Z,939.55
2023-01-13T00:08:15.912Z,939.59
2023-01-13T00:08:25.912Z,939.52
2023-01-13T00:08:35.929Z,939.53
2023-01-13T00:08:45.915Z,939.54
2023-01-13T00:08:55.925Z,939.53
2023-01-13T00:09:05.902Z,939.54
2023-01-13T00:09:15.928Z,939.52
2023-01-13T00:09:25.914Z,939.52
2023-01-13T00:09:35.926Z,939.53
2023-01-13T00:09:45.918Z,939.53
2023-01-13T00:09:55.930Z,939.53
2023-01-13T00:10:05.920Z,939.53
2023-01-13T00:10:15.920Z,939.54
2023-01-13T00:10:25.926Z,939.54
2023-01-13T00:10:35.921Z,939.53
2023-01-13T00:10:45.927Z,939.51
2023-01-13T00:10:55.924Z,939.55
2023-01-13T00:11:05.929Z,939.53
2023-01-13T00:11:15.933Z,939.55
2023-01-13T00:11:25.928Z,939.57
2023-01-13T00:11:35.933Z,939.59
2023-01-13T00:11:45.937Z,939.55
2023-01-13T00:11:55.936Z,939.53
2023-01-13T00:12:05.934Z,939.52
2023-01-13T00:12:15.934Z,939.55
2023-01-13T00:12:25.931Z,939.51
2023-01-13T00:12:35.935Z,939.54
2023-01-13T00:12:45.933Z,939.52
2023-01-13T00:12:55.934Z,939.59
2023-01-13T00:13:05.933Z,939.54
2023-01-13T00:13:15.933Z,939.53
2023-01-13T00:13:25.937Z,939.52
2023-01-13T00:13:35.936Z,939.53
2023-01-13T00:13:45.942Z,939.55
2023-01-13T00:13:55.954Z,939.54
2023-01-13T00:14:05.919Z,939.53
2023-01-13T00:14:15.979Z,939.53
2023-01-13T00:14:25.941Z,939.54
2023-01-13T00:14:35.942Z,939.52
2023-01-13T00:14:45.953Z,939.55
2023-01-13T00:14:55.951Z,939.55
2023-01-13T00:15:05.954Z,939.52
2023-01-13T00:15:15.951Z,939.50
2023-01-13T00:15:25.949Z,939.51
2023-01-13T00:15:35.995Z,939.55
2023-01-13T00:15:45.970Z,939.52
2023-01-13T00:15:56.013Z,939.49
2023-01-13T00:16:05.987Z,939.48
2023-01-13T00:16:15.981Z,939.51
2023-01-13T00:16:25.957Z,939.51
2023-01-13T00:16:35.948Z,939.48
2023-01-13T00:16:45.955Z,939.50
2023-01-13T00:16:55.956Z,939.49
2023-01-13T00:17:05.971Z,939.51
2023-01-13T00:17:15.951Z,939.49
2023-01-13T00:17:25.952Z,939.51
2023-01-13T00:17:35.955Z,939.46
2023-01-13T00:17:45.953Z,939.48
2023-01-13T00:17:55.956Z,939.51
2023-01-13T00:18:05.956Z,939.46
2023-01-13T00:18:15.971Z,939.49
2023-01-13T00:18:25.961Z,939.49
2023-01-13T00:18:35.956Z,939.49
2023-01-13T00:18:45.958Z,939.54
2023-01-13T00:18:55.966Z,939.49
2023-01-13T00:19:05.962Z,939.46
2023-01-13T00:19:15.971Z,939.44
2023-01-13T00:19:25.967Z,939.46
2023-01-13T00:19:35.963Z,939.47
2023-01-13T00:19:45.963Z,939.50
2023-01-13T00:19:55.967Z,939.48
2023-01-13T00:20:05.967Z,939.47
2023-01-13T00:20:15.967Z,939.47
2023-01-13T00:20:25.972Z,939.48
2023-01-13T00:20:35.971Z,939.50
2023-01-13T00:20:45.971Z,939.50
2023-01-13T00:20:55.969Z,939.47
2023-01-13T00:21:05.971Z,939.43
2023-01-13T00:21:15.988Z,939.45
2023-01-13T00:21:25.974Z,939.46
2023-01-13T00:21:35.977Z,939.44
2023-01-13T00:21:45.974Z,939.45
2023-01-13T00:21:55.975Z,939.48
2023-01-13T00:22:05.986Z,939.48
2023-01-13T00:22:15.977Z,939.46
2023-01-13T00:22:25.982Z,939.43
2023-01-13T00:22:35.994Z,939.44
2023-01-13T00:22:45.980Z,939.42
2023-01-13T00:22:55.980Z,939.43
2023-01-13T00:23:05.981Z,939.49
2023-01-13T00:23:15.970Z,939.48
2023-01-13T00:23:25.985Z,939.50
2023-01-13T00:23:35.991Z,939.47
2023-01-13T00:23:46.000Z,939.52
2023-01-13T00:23:55.983Z,939.51
2023-01-13T00:24:05.988Z,939.48
2023-01-13T00:24:15.985Z,939.49
2023-01-13T00:24:25.989Z,939.50
2023-01-13T00:24:35.994Z,939.47
2023-01-13T00:24:45.989Z,939.46
2023-01-13T00:24:55.992Z,939.49
2023-01-13T00:25:05.991Z,939.47
2023-01-13T00:25:15.987Z,939.46
2023-01-13T00:25:25.992Z,939.46
2023-01-13T00:25:35.993Z,939.47
2023-01-13T00:25:45.993Z,939.48
2023-01-13T00:25:55.999Z,939.48
2023-01-13T00:26:05.995Z,939.46
2023-01-13T00:26:15.993Z,939.50
2023-01-13T00:26:25.999Z,939.47
2023-01-13T00:26:36.026Z,939.45
2023-01-13T00:26:45.995Z,939.47
2023-01-13T00:26:56.000Z,939.47
2023-01-13T00:27:05.997Z,939.44
2023-01-13T00:27:15.998Z,939.46
2023-01-13T00:27:26.000Z,939.48
2023-01-13T00:27:36.000Z,939.47
2023-01-13T00:27:46.002Z,939.48
2023-01-13T00:27:56.000Z,939.49
2023-01-13T00:28:06.002Z,939.54
2023-01-13T00:28:16.001Z,939.53
2023-01-13T00:28:26.004Z,939.53
2023-01-13T00:28:36.004Z,939.48
2023-01-13T00:28:45.989Z,939.50
2023-01-13T00:28:56.008Z,939.50
2023-01-13T00:29:06.004Z,939.53
2023-01-13T00:29:16.006Z,939.47
2023-01-13T00:29:26.008Z,939.49
2023-01-13T00:29:36.008Z,939.53
2023-01-13T00:29:46.008Z,939.47
2023-01-13T00:29:56.008Z,939.43
2023-01-13T00:30:06.012Z,939.47
2023-01-13T00:30:16.006Z,939.46
2023-01-13T00:30:26.012Z,939.47
2023-01-13T00:30:36.010Z,939.46
2023-01-13T00:30:46.011Z,939.50
2023-01-13T00:30:56.042Z,939.45
2023-01-13T00:31:06.107Z,939.48
2023-01-13T00:31:16.061Z,939.44
2023-01-13T00:31:26.061Z,939.48
2023-01-13T00:31:36.043Z,939.47
2023-01-13T00:31:46.013Z,939.46
2023-01-13T00:31:56.012Z,939.46
2023-01-13T00:32:06.020Z,939.44
2023-01-13T00:32:16.032Z,939.43
2023-01-13T00:32:26.000Z,939.45
2023-01-13T00:32:36.020Z,939.47
2023-01-13T00:32:46.015Z,939.46
2023-01-13T00:32:56.014Z,939.42
2023-01-13T00:33:06.026Z,939.44
2023-01-13T00:33:16.015Z,939.43
2023-01-13T00:33:26.019Z,939.43
2023-01-13T00:33:36.036Z,939.45
2023-01-13T00:33:46.031Z,939.45
2023-01-13T00:33:56.025Z,939.43
2023-01-13T00:34:06.019Z,939.44
2023-01-13T00:34:16.018Z,939.41
2023-01-13T00:34:26.040Z,939.43
2023-01-13T00:34:36.025Z,939.44
2023-01-13T00:34:46.022Z,939.47
2023-01-13T00:34:56.007Z,939.47
2023-01-13T00:35:06.026Z,939.43
2023-01-13T00:35:16.026Z,939.38
2023-01-13T00:35:26.029Z,939.35
2023-01-13T00:35:36.031Z,939.36
2023-01-13T00:35:46.029Z,939.38
2023-01-13T00:35:56.033Z,939.37
2023-01-13T00:36:06.027Z,939.41
2023-01-13T00:36:16.038Z,939.43
2023-01-13T00:36:26.033Z,939.42
2023-01-13T00:36:36.036Z,939.38
2023-01-13T00:36:46.042Z,939.38
2023-01-13T00:36:56.036Z,939.40
2023-01-13T00:37:06.035Z,939.41
2023-01-13T00:37:16.036Z,939.38
2023-01-13T00:37:26.044Z,939.36
2023-01-13T00:37:36.038Z,939.43
2023-01-13T00:37:46.039Z,939.44
2023-01-13T00:37:56.039Z,939.46
2023-01-13T00:38:06.070Z,939.42
2023-01-13T00:38:16.043Z,939.43
2023-01-13T00:38:26.039Z,939.42
2023-01-13T00:38:36.060Z,939.42
2023-01-13T00:38:46.037Z,939.40
2023-01-13T00:38:56.047Z,939.39
2023-01-13T00:39:06.041Z,939.41
2023-01-13T00:39:16.046Z,939.39
2023-01-13T00:39:26.067Z,939.37
2023-01-13T00:39:36.048Z,939.40
2023-01-13T00:39:46.048Z,939.37
2023-01-13T00:39:56.048Z,939.38
2023-01-13T00:40:06.053Z,939.36
2023-01-13T00:40:16.053Z,939.36
2023-01-13T00:40:26.045Z,939.43
2023-01-13T00:40:36.049Z,939.51
2023-01-13T00:40:46.050Z,939.39
2023-01-13T00:40:56.050Z,939.33
2023-01-13T00:41:06.052Z,939.33
2023-01-13T00:41:16.057Z,939.37
2023-01-13T00:41:26.062Z,939.37
2023-01-13T00:41:36.054Z,939.41
2023-01-13T00:41:46.052Z,939.31
2023-01-13T00:41:56.053Z,939.34
2023-01-13T00:42:06.065Z,939.42
2023-01-13T00:42:16.054Z,939.50
2023-01-13T00:42:26.059Z,939.35
2023-01-13T00:42:36.057Z,939.35
2023-01-13T00:42:46.056Z,939.43
2023-01-13T00:42:56.055Z,939.40
2023-01-13T00:43:06.057Z,939.42
2023-01-13T00:43:16.058Z,939.36
2023-01-13T00:43:26.057Z,939.39
2023-01-13T00:43:36.063Z,939.39
2023-01-13T00:43:46.080Z,939.40
2023-01-13T00:43:56.064Z,939.40
2023-01-13T00:44:06.069Z,939.40
2023-01-13T00:44:16.065Z,939.40
2023-01-13T00:44:26.084Z,939.38
2023-01-13T00:44:36.069Z,939.36
2023-01-13T00:44:46.078Z,939.39
2023-01-13T00:44:56.064Z,939.37
2023-01-13T00:45:06.064Z,939.36
2023-01-13T00:45:16.075Z,939.38
2023-01-13T00:45:26.071Z,939.40
2023-01-13T00:45:36.054Z,939.40
2023-01-13T00:45:46.075Z,939.37
2023-01-13T00:45:56.063Z,939.36
2023-01-13T00:46:06.203Z,939.37
2023-01-13T00:46:16.128Z,939.39
2023-01-13T00:46:26.097Z,939.36
2023-01-13T00:46:36.102Z,939.34
2023-01-13T00:46:46.135Z,939.38
2023-01-13T00:46:56.080Z,939.31
2023-01-13T00:47:06.069Z,939.31
2023-01-13T00:47:16.086Z,939.31
2023-01-13T00:47:26.079Z,939.37
2023-01-13T00:47:36.090Z,939.35
2023-01-13T00:47:46.078Z,939.34
2023-01-13T00:47:56.077Z,939.35
2023-01-13T00:48:06.082Z,939.33
2023-01-13T00:48:16.087Z,939.34
2023-01-13T00:48:26.081Z,939.34
2023-01-13T00:48:36.085Z,939.40
2023-01-13T00:48:46.084Z,939.31
2023-01-13T00:48:56.086Z,939.32
2023-01-13T00:49:06.087Z,939.27
2023-01-13T00:49:16.105Z,939.29
2023-01-13T00:49:26.133Z,939.29
2023-01-13T00:49:36.091Z,939.32
2023-01-13T00:49:46.090Z,939.32
2023-01-13T00:49:56.097Z,939.32
2023-01-13T00:50:06.092Z,939.30
2023-01-13T00:50:16.094Z,939.26
2023-01-13T00:50:26.093Z,939.29
2023-01-13T00:50:36.093Z,939.27
2023-01-13T00:50:46.093Z,939.24
2023-01-13T00:50:56.100Z,939.24
2023-01-13T00:51:06.095Z,939.27
2023-01-13T00:51:16.094Z,939.29
2023-01-13T00:51:26.098Z,939.27
2023-01-13T00:51:36.096Z,939.25
2023-01-13T00:51:46.099Z,939.26
2023-01-13T00:51:56.098Z,939.28
2023-01-13T00:52:06.103Z,939.25
2023-01-13T00:52:16.099Z,939.25
2023-01-13T00:52:26.099Z,939.26
2023-01-13T00:52:36.102Z,939.22
2023-01-13T00:52:46.109Z,939.25
2023-01-13T00:52:56.099Z,939.29
2023-01-13T00:53:06.101Z,939.25
2023-01-13T00:53:16.103Z,939.30
2023-01-13T00:53:26.101Z,939.31
2023-01-13T00:53:36.122Z,939.24
2023-01-13T00:53:46.104Z,939.22
2023-01-13T00:53:56.105Z,939.27
2023-01-13T00:54:06.112Z,939.25
2023-01-13T00:54:16.105Z,939.28
2023-01-13T00:54:26.112Z,939.31
2023-01-13T00:54:36.113Z,939.22
2023-01-13T00:54:46.107Z,939.23
2023-01-13T00:54:56.108Z,939.27
2023-01-13T00:55:06.122Z,939.28
2023-01-13T00:55:16.112Z,939.23
2023-01-13T00:55:26.112Z,939.33
2023-01-13T00:55:36.111Z,939.26
2023-01-13T00:55:46.118Z,939.27
2023-01-13T00:55:56.114Z,939.25
2023-01-13T00:56:06.113Z,939.25
2023-01-13T00:56:16.886Z,939.26
2023-01-13T00:56:39.572Z,939.24
2023-01-13T00:56:40.558Z,939.25
2023-01-13T00:56:46.119Z,939.26
2023-01-13T00:56:56.126Z,939.30
2023-01-13T00:57:06.121Z,939.34
2023-01-13T00:57:16.123Z,939.28
2023-01-13T00:57:26.118Z,939.32
2023-01-13T00:57:36.129Z,939.29
2023-01-13T00:57:46.120Z,939.30
2023-01-13T00:57:56.127Z,939.32
2023-01-13T00:58:06.125Z,939.28
2023-01-13T00:58:16.126Z,939.27
2023-01-13T00:58:26.134Z,939.28
2023-01-13T00:58:36.129Z,939.25
2023-01-13T00:58:46.126Z,939.26
2023-01-13T00:58:56.124Z,939.27
2023-01-13T00:59:06.144Z,939.29
2023-01-13T00:59:16.106Z,939.28
2023-01-13T00:59:26.137Z,939.28
2023-01-13T00:59:36.128Z,939.30
2023-01-13T00:59:47.175Z,939.30
2023-01-13T00:59:56.146Z,939.29
2023-01-13T01:00:06.130Z,939.30
2023-01-13T01:00:16.132Z,939.27
2023-01-13T01:00:26.134Z,939.28
2023-01-13T01:00:36.161Z,939.25
2023-01-13T01:00:46.174Z,939.23
2023-01-13T01:00:56.269Z,939.23
2023-01-13T01:01:06.288Z,939.20
2023-01-13T01:01:16.281Z,939.20
2023-01-13T01:01:26.256Z,939.23
2023-01-13T01:01:36.257Z,939.23
2023-01-13T01:01:46.317Z,939.19
2023-01-13T01:01:56.298Z,939.17
2023-01-13T01:02:06.288Z,939.16
2023-01-13T01:02:16.264Z,939.17
2023-01-13T01:02:26.210Z,939.15
2023-01-13T01:02:36.293Z,939.15
2023-01-13T01:02:46.195Z,939.20
2023-01-13T01:02:56.139Z,939.17
2023-01-13T01:03:06.141Z,939.14
2023-01-13T01:03:16.142Z,939.16
2023-01-13T01:03:26.143Z,939.18
2023-01-13T01:03:36.145Z,939.20
2023-01-13T01:03:46.143Z,939.21
2023-01-13T01:03:56.143Z,939.21
2023-01-13T01:04:06.146Z,939.19
2023-01-13T01:04:16.128Z,939.20
2023-01-13T01:04:26.160Z,939.20
2023-01-13T01:04:36.152Z,939.20
2023-01-13T01:04:46.147Z,939.17
2023-01-13T01:04:56.150Z,939.17
2023-01-13T01:05:06.163Z,939.17
2023-01-13T01:05:16.151Z,939.21
2023-01-13T01:05:26.158Z,939.18
2023-01-13T01:05:36.154Z,939.17
2023-01-13T01:05:46.167Z,939.16
2023-01-13T01:05:56.158Z,939.20
2023-01-13T01:06:06.161Z,939.12
2023-01-13T01:06:16.168Z,939.16
2023-01-13T01:06:26.159Z,939.15
2023-01-13T01:06:36.163Z,939.16
2023-01-13T01:06:46.144Z,939.16
2023-01-13T01:06:56.177Z,939.26
2023-01-13T01:07:06.161Z,939.13
2023-01-13T01:07:16.165Z,939.14
2023-01-13T01:07:26.154Z,939.16
2023-01-13T01:07:36.165Z,939.14
2023-01-13T01:07:46.164Z,939.13
2023-01-13T01:07:56.166Z,939.14
2023-01-13T01:08:06.167Z,939.15
2023-01-13T01:08:16.170Z,939.13
2023-01-13T01:08:26.167Z,939.13
2023-01-13T01:08:36.169Z,939.14
2023-01-13T01:08:46.175Z,939.13
2023-01-13T01:08:56.189Z,939.13
2023-01-13T01:09:06.170Z,939.15
2023-01-13T01:09:16.172Z,939.15
2023-01-13T01:09:26.195Z,939.14
2023-01-13T01:09:36.181Z,939.17
2023-01-13T01:09:46.174Z,939.14
2023-01-13T01:09:56.179Z,939.12
2023-01-13T01:10:06.184Z,939.15
2023-01-13T01:10:16.179Z,939.12
2023-01-13T01:10:26.183Z,939.11
2023-01-13T01:10:36.177Z,939.13
2023-01-13T01:10:46.176Z,939.11
2023-01-13T01:10:56.177Z,939.13
2023-01-13T01:11:06.184Z,939.08
2023-01-13T01:11:16.184Z,939.07
2023-01-13T01:11:26.200Z,939.06
2023-01-13T01:11:36.178Z,939.11
2023-01-13T01:11:46.185Z,939.12
2023-01-13T01:11:56.183Z,939.09
2023-01-13T01:12:06.183Z,939.10
2023-01-13T01:12:16.184Z,939.11
2023-01-13T01:12:26.199Z,939.09
2023-01-13T01:12:36.185Z,939.12
2023-01-13T01:12:46.187Z,939.09
2023-01-13T01:12:56.200Z,939.13
2023-01-13T01:13:06.190Z,939.10
2023-01-13T01:13:16.198Z,939.08
2023-01-13T01:13:26.189Z,939.11
2023-01-13T01:13:36.187Z,939.12
2023-01-13T01:13:46.191Z,939.12
2023-01-13T01:13:56.199Z,939.12
2023-01-13T01:14:06.196Z,939.10
2023-01-13T01:14:16.195Z,939.11
2023-01-13T01:14:26.232Z,939.15
2023-01-13T01:14:36.180Z,939.13
2023-01-13T01:14:46.195Z,939.11
2023-01-13T01:14:56.206Z,939.13
2023-01-13T01:15:06.201Z,939.08
2023-01-13T01:15:16.229Z,939.14
2023-01-13T01:15:26.204Z,939.16
2023-01-13T01:15:36.199Z,939.14
2023-01-13T01:15:46.253Z,939.09
2023-01-13T01:15:56.244Z,939.12
2023-01-13T01:16:06.220Z,939.12
2023-01-13T01:16:16.238Z,939.14
2023-01-13T01:16:26.386Z,939.12
2023-01-13T01:16:36.212Z,939.17
2023-01-13T01:16:46.194Z,939.12
2023-01-13T01:16:56.216Z,939.15
2023-01-13T01:17:06.204Z,939.17
2023-01-13T01:17:16.226Z,939.17
2023-01-13T01:17:26.208Z,939.17
2023-01-13T01:17:36.195Z,939.13
2023-01-13T01:17:46.212Z,939.10
2023-01-13T01:17:56.211Z,939.11
2023-01-13T01:18:06.210Z,939.15
2023-01-13T01:18:16.213Z,939.15
2023-01-13T01:18:26.216Z,939.14
2023-01-13T01:18:36.213Z,939.14
2023-01-13T01:18:46.219Z,939.17
2023-01-13T01:18:56.218Z,939.07
2023-01-13T01:19:06.218Z,939.09
2023-01-13T01:19:16.229Z,939.08
2023-01-13T01:19:26.238Z,939.12
2023-01-13T01:19:36.226Z,939.12
2023-01-13T01:19:46.224Z,939.12
2023-01-13T01:19:56.222Z,939.11
2023-01-13T01:20:06.231Z,939.11
2023-01-13T01:20:16.221Z,939.12
2023-01-13T01:20:26.220Z,939.14
2023-01-13T01:20:36.221Z,939.15
2023-01-13T01:20:46.224Z,939.14
2023-01-13T01:20:56.222Z,939.21
2023-01-13T01:21:06.222Z,939.12
2023-01-13T01:21:16.227Z,939.11
2023-01-13T01:21:26.223Z,939.12
2023-01-13T01:21:36.225Z,939.15
2023-01-13T01:21:46.228Z,939.16
2023-01-13T01:21:56.233Z,939.18
2023-01-13T01:22:06.236Z,939.16
2023-01-13T01:22:16.212Z,939.15
2023-01-13T01:22:26.223Z,939.15
2023-01-13T01:22:36.210Z,939.14
2023-01-13T01:22:46.232Z,939.16
2023-01-13T01:22:56.231Z,939.16
2023-01-13T01:23:06.229Z,939.16
2023-01-13T01:23:16.230Z,939.13
2023-01-13T01:23:26.231Z,939.11
2023-01-13T01:23:36.239Z,939.15
2023-01-13T01:23:46.248Z,939.17
2023-01-13T01:23:56.242Z,939.16
2023-01-13T01:24:06.215Z,939.15
2023-01-13T01:24:16.234Z,939.18
2023-01-13T01:24:26.269Z,939.12
2023-01-13T01:24:36.230Z,939.13
2023-01-13T01:24:46.246Z,939.14
2023-01-13T01:24:56.239Z,939.14
2023-01-13T01:25:06.238Z,939.12
2023-01-13T01:25:16.240Z,939.16
2023-01-13T01:25:26.246Z,939.11
2023-01-13T01:25:36.241Z,939.21
2023-01-13T01:25:46.222Z,939.10
2023-01-13T01:25:56.248Z,939.08
2023-01-13T01:26:06.237Z,939.08
2023-01-13T01:26:16.238Z,939.08
2023-01-13T01:26:26.257Z,939.07
2023-01-13T01:26:36.241Z,939.07
2023-01-13T01:26:46.242Z,939.09
2023-01-13T01:26:56.242Z,939.12
2023-01-13T01:27:06.254Z,939.08
2023-01-13T01:27:16.246Z,939.06
2023-01-13T01:27:26.250Z,939.07
2023-01-13T01:27:36.248Z,939.08
2023-01-13T01:27:46.250Z,939.06
2023-01-13T01:27:56.247Z,939.08
2023-01-13T01:28:06.250Z,939.10
2023-01-13T01:28:16.248Z,939.10
2023-01-13T01:28:26.264Z,939.09
2023-01-13T01:28:36.249Z,939.10
2023-01-13T01:28:46.254Z,939.06
2023-01-13T01:28:56.254Z,939.06
2023-01-13T01:29:06.236Z,939.06
2023-01-13T01:29:16.266Z,939.10
2023-01-13T01:29:26.253Z,939.12
2023-01-13T01:29:36.258Z,939.11
2023-01-13T01:29:46.254Z,939.14
2023-01-13T01:29:56.258Z,939.12
2023-01-13T01:30:06.279Z,939.07
2023-01-13T01:30:16.260Z,939.07
2023-01-13T01:30:26.261Z,939.10
2023-01-13T01:30:36.259Z,939.10
2023-01-13T01:30:46.261Z,939.12
2023-01-13T01:30:56.260Z,939.12
2023-01-13T01:31:06.298Z,939.08
2023-01-13T01:31:16.287Z,939.07
2023-01-13T01:31:26.303Z,939.06
2023-01-13T01:31:36.293Z,939.08
2023-01-13T01:31:46.297Z,939.10
2023-01-13T01:31:56.263Z,939.12
2023-01-13T01:32:06.275Z,939.09
2023-01-13T01:32:16.264Z,939.10
2023-01-13T01:32:26.267Z,939.08
2023-01-13T01:32:36.271Z,939.12
2023-01-13T01:32:46.271Z,939.10
2023-01-13T01:32:56.272Z,939.10
2023-01-13T01:33:06.269Z,939.09
2023-01-13T01:33:16.270Z,939.09
2023-01-13T01:33:26.271Z,939.08
2023-01-13T01:33:36.270Z,939.08
2023-01-13T01:33:46.283Z,939.09
2023-01-13T01:33:56.270Z,939.11
2023-01-13T01:34:06.275Z,939.08
2023-01-13T01:34:16.274Z,939.11
2023-01-13T01:34:26.305Z,939.10
2023-01-13T01:34:36.275Z,939.12
2023-01-13T01:34:46.282Z,939.12
2023-01-13T01:34:56.275Z,939.13
2023-01-13T01:35:06.276Z,939.09
2023-01-13T01:35:16.279Z,939.06
2023-01-13T01:35:26.283Z,939.09
2023-01-13T01:35:36.290Z,939.10
2023-01-13T01:35:46.282Z,939.08
2023-01-13T01:35:56.296Z,939.08
2023-01-13T01:36:06.283Z,939.12
2023-01-13T01:36:16.293Z,939.12
2023-01-13T01:36:26.305Z,939.13
2023-01-13T01:36:36.286Z,939.14
2023-01-13T01:36:46.297Z,939.15
2023-01-13T01:36:56.289Z,939.16
2023-01-13T01:37:06.284Z,939.12
2023-01-13T01:37:16.285Z,939.11
2023-01-13T01:37:26.292Z,939.13
2023-01-13T01:37:36.289Z,939.10
2023-01-13T01:37:46.295Z,939.14
2023-01-13T01:37:56.320Z,939.14
2023-01-13T01:38:06.303Z,939.11
2023-01-13T01:38:16.293Z,939.09
2023-01-13T01:38:26.298Z,939.08
2023-01-13T01:38:36.297Z,939.06
2023-01-13T01:38:46.298Z,939.06
2023-01-13T01:38:56.297Z,939.08
2023-01-13T01:39:06.314Z,939.09
2023-01-13T01:39:16.309Z,939.08
2023-01-13T01:39:26.291Z,939.08
2023-01-13T01:39:36.313Z,939.10
2023-01-13T01:39:46.300Z,939.08
2023-01-13T01:39:56.298Z,939.06
2023-01-13T01:40:06.304Z,939.04
2023-01-13T01:40:16.298Z,939.04
2023-01-13T01:40:26.307Z,939.06
2023-01-13T01:40:36.300Z,939.08
2023-01-13T01:40:46.301Z,939.08
2023-01-13T01:40:56.281Z,939.14
2023-01-13T01:41:06.305Z,939.10
2023-01-13T01:41:16.303Z,939.09
2023-01-13T01:41:26.316Z,939.08
2023-01-13T01:41:36.306Z,939.06
2023-01-13T01:41:46.305Z,939.03
2023-01-13T01:41:56.304Z,939.05
2023-01-13T01:42:06.313Z,939.08
2023-01-13T01:42:16.308Z,939.09
2023-01-13T01:42:26.316Z,939.06
2023-01-13T01:42:36.306Z,939.07
2023-01-13T01:42:46.309Z,939.07
2023-01-13T01:42:56.309Z,939.08
2023-01-13T01:43:06.325Z,939.10
2023-01-13T01:43:16.313Z,939.10
2023-01-13T01:43:26.311Z,939.09
2023-01-13T01:43:36.314Z,939.09
2023-01-13T01:43:46.313Z,939.09
2023-01-13T01:43:56.316Z,939.11
2023-01-13T01:44:06.316Z,939.12
2023-01-13T01:44:16.314Z,939.12
2023-01-13T01:44:26.328Z,939.13
2023-01-13T01:44:36.318Z,939.07
2023-01-13T01:44:46.320Z,939.10
2023-01-13T01:44:56.326Z,939.06
2023-01-13T01:45:06.322Z,939.00
2023-01-13T01:45:16.330Z,938.95
2023-01-13T01:45:26.328Z,939.00
2023-01-13T01:45:36.329Z,939.01
2023-01-13T01:45:46.326Z,939.04
2023-01-13T01:45:56.328Z,939.07
2023-01-13T01:46:06.331Z,939.06
2023-01-13T01:46:16.353Z,939.09
2023-01-13T01:46:26.380Z,939.08
2023-01-13T01:46:36.363Z,939.09
2023-01-13T01:46:46.380Z,939.09
2023-01-13T01:46:56.391Z,939.09
2023-01-13T01:47:06.363Z,939.04
2023-01-13T01:47:16.334Z,939.07
2023-01-13T01:47:26.353Z,939.07
2023-01-13T01:47:36.337Z,939.06
2023-01-13T01:47:46.338Z,939.08
2023-01-13T01:47:56.337Z,939.07
2023-01-13T01:48:06.349Z,939.04
2023-01-13T01:48:16.339Z,939.05
2023-01-13T01:48:26.343Z,939.06
2023-01-13T01:48:36.344Z,939.05
2023-01-13T01:48:46.349Z,939.05
2023-01-13T01:48:56.346Z,939.06
2023-01-13T01:49:06.346Z,939.06
2023-01-13T01:49:16.346Z,939.04
2023-01-13T01:49:26.374Z,939.03
2023-01-13T01:49:36.363Z,939.05
2023-01-13T01:49:46.355Z,939.05
2023-01-13T01:49:56.350Z,939.02
2023-01-13T01:50:06.356Z,939.03
2023-01-13T01:50:16.352Z,939.04
2023-01-13T01:50:26.352Z,939.04
2023-01-13T01:50:36.352Z,939.06
2023-01-13T01:50:46.357Z,939.02
2023-01-13T01:50:56.357Z,939.02
2023-01-13T01:51:06.362Z,939.03
2023-01-13T01:51:16.363Z,939.05
2023-01-13T01:51:26.357Z,939.04
2023-01-13T01:51:36.369Z,939.03
2023-01-13T01:51:46.357Z,939.04
2023-01-13T01:51:56.360Z,939.07
2023-01-13T01:52:06.360Z,938.99
2023-01-13T01:52:16.377Z,939.03
2023-01-13T01:52:26.361Z,939.02
2023-01-13T01:52:36.365Z,939.01
2023-01-13T01:52:46.362Z,939.04
2023-01-13T01:52:56.367Z,939.10
2023-01-13T01:53:06.367Z,939.02
2023-01-13T01:53:16.366Z,939.05
2023-01-13T01:53:26.379Z,939.06
2023-01-13T01:53:36.368Z,939.07
2023-01-13T01:53:46.366Z,939.11
2023-01-13T01:53:56.369Z,939.08
2023-01-13T01:54:06.381Z,939.08
2023-01-13T01:54:16.371Z,939.11
2023-01-13T01:54:26.384Z,939.11
2023-01-13T01:54:36.391Z,939.07
2023-01-13T01:54:46.372Z,939.08
2023-01-13T01:54:56.374Z,939.07
2023-01-13T01:55:06.381Z,939.04
2023-01-13T01:55:16.380Z,939.04
2023-01-13T01:55:26.376Z,939.01
2023-01-13T01:55:36.378Z,939.00
2023-01-13T01:55:46.377Z,938.97
2023-01-13T01:55:56.376Z,939.02
2023-01-13T01:56:06.377Z,939.00
2023-01-13T01:56:16.375Z,938.97
2023-01-13T01:56:26.383Z,938.96
2023-01-13T01:56:36.377Z,938.96
2023-01-13T01:56:46.379Z,938.95
2023-01-13T01:56:56.395Z,938.98
2023-01-13T01:57:06.382Z,938.97
2023-01-13T01:57:16.385Z,938.97
2023-01-13T01:57:26.387Z,938.97
2023-01-13T01:57:36.386Z,939.01
2023-01-13T01:57:46.396Z,938.95
2023-01-13T01:57:56.396Z,938.98
2023-01-13T01:58:06.387Z,938.98
2023-01-13T01:58:16.392Z,938.97
2023-01-13T01:58:26.388Z,938.99
2023-01-13T01:58:36.388Z,938.99
2023-01-13T01:58:46.390Z,938.98
2023-01-13T01:58:56.391Z,938.97
2023-01-13T01:59:06.391Z,938.98
2023-01-13T01:59:16.393Z,938.97
2023-01-13T01:59:26.428Z,938.98
2023-01-13T01:59:36.410Z,938.96
2023-01-13T01:59:46.401Z,938.97
2023-01-13T01:59:56.400Z,938.95
2023-01-13T02:00:06.396Z,939.02
2023-01-13T02:00:16.399Z,939.01
2023-01-13T02:00:26.406Z,938.95
2023-01-13T02:00:36.433Z,938.96
2023-01-13T02:00:46.408Z,938.97
2023-01-13T02:00:56.505Z,938.97
2023-01-13T02:01:06.553Z,938.98
2023-01-13T02:01:16.545Z,938.95
2023-01-13T02:01:26.527Z,938.95
2023-01-13T02:01:36.480Z,938.99
2023-01-13T02:01:46.554Z,938.98
2023-01-13T02:01:56.545Z,938.96
2023-01-13T02:02:06.570Z,938.99
2023-01-13T02:02:16.462Z,939.02
2023-01-13T02:02:26.412Z,938.96
2023-01-13T02:02:36.482Z,938.94
2023-01-13T02:02:46.519Z,938.93
2023-01-13T02:02:56.410Z,938.90
2023-01-13T02:03:06.412Z,938.96
2023-01-13T02:03:16.430Z,938.88
2023-01-13T02:03:26.414Z,938.91
2023-01-13T02:03:36.420Z,938.94
2023-01-13T02:03:46.418Z,938.93
2023-01-13T02:03:56.416Z,938.96
2023-01-13T02:04:06.421Z,938.96
2023-01-13T02:04:16.420Z,938.95
2023-01-13T02:04:26.419Z,938.93
2023-01-13T02:04:36.423Z,938.91
2023-01-13T02:04:46.422Z,938.93